createdAt,value
2022-09-12T03:33:43.284Z,99.99
2022-09-12T03:34:44.200Z,99.99
2022-09-12T03:35:44.202Z,99.99
2022-09-12T03:36:44.177Z,99.99
2022-09-12T03:37:44.167Z,99.99
2022-09-12T03:38:44.217Z,99.99
2022-09-12T03:39:50.781Z,99.99
2022-09-12T03:40:44.140Z,99.99
2022-09-12T03:41:44.144Z,99.99
2022-09-12T03:42:44.120Z,99.99
2022-09-12T03:43:44.109Z,99.99
2022-09-12T03:44:44.083Z,99.99
2022-09-12T03:45:44.122Z,99.99
2022-09-12T03:46:44.092Z,99.99
2022-09-12T03:47:44.071Z,99.99
2022-09-12T03:48:44.100Z,99.99
2022-09-12T03:49:44.045Z,99.99
2022-09-12T03:50:44.018Z,99.99
2022-09-12T03:51:44.012Z,99.99
2022-09-12T03:52:44.005Z,99.99
2022-09-12T03:53:44.002Z,99.99
2022-09-12T03:54:43.998Z,99.99
2022-09-12T03:55:43.965Z,99.99
2022-09-12T03:56:43.965Z,99.99
2022-09-12T03:57:43.978Z,99.99
2022-09-12T03:58:43.995Z,99.99
2022-09-12T03:59:43.962Z,99.99
2022-09-12T04:00:43.914Z,99.99
2022-09-12T04:01:43.924Z,99.99
2022-09-12T04:02:50.448Z,99.99
2022-09-12T04:03:43.936Z,99.99
2022-09-12T04:04:43.886Z,99.99
2022-09-12T04:05:43.856Z,99.99
2022-09-12T04:06:43.856Z,99.99
2022-09-12T04:07:43.848Z,99.99
2022-09-12T04:08:43.903Z,99.99
2022-09-12T04:09:43.814Z,99.99
2022-09-12T04:10:43.812Z,99.99
2022-09-12T04:11:43.799Z,99.99
2022-09-12T04:12:43.800Z,99.99
2022-09-12T04:13:43.791Z,99.99
2022-09-12T04:14:43.798Z,99.99
2022-09-12T04:15:43.754Z,99.99
2022-09-12T04:16:43.784Z,99.99
2022-09-12T04:17:43.737Z,99.99
2022-09-12T04:18:43.710Z,99.99
2022-09-12T04:19:43.741Z,99.99
2022-09-12T04:20:43.728Z,99.99
2022-09-12T04:21:43.678Z,99.99
2022-09-12T04:22:43.698Z,99.99
2022-09-12T04:23:43.659Z,99.99
2022-09-12T04:24:43.664Z,99.99
2022-09-12T04:25:43.643Z,99.99
2022-09-12T04:26:43.629Z,99.99
2022-09-12T04:27:43.632Z,99.99
2022-09-12T04:28:43.610Z,99.99
2022-09-12T04:29:43.598Z,99.99
2022-09-12T04:30:43.610Z,99.99
2022-09-12T04:31:43.587Z,99.99
2022-09-12T04:32:43.584Z,99.99
2022-09-12T04:33:43.574Z,99.99
2022-09-12T04:34:43.587Z,99.99
2022-09-12T04:35:43.521Z,99.99
2022-09-12T04:36:43.519Z,99.99
2022-09-12T04:37:43.505Z,99.99
2022-09-12T04:38:43.521Z,99.99
2022-09-12T04:39:43.622Z,99.99
2022-09-12T04:40:43.466Z,99.99
2022-09-12T04:41:43.513Z,99.99
2022-09-12T04:42:43.446Z,99.99
2022-09-12T04:43:43.464Z,99.99
2022-09-12T04:44:43.435Z,99.99
2022-09-12T04:45:43.484Z,99.99
2022-09-12T04:46:43.409Z,99.99
2022-09-12T04:47:43.397Z,99.99
2022-09-12T04:48:43.388Z,99.99
2022-09-12T04:49:43.372Z,99.99
2022-09-12T04:50:43.372Z,99.99
2022-09-12T04:51:43.353Z,99.99
2022-09-12T04:52:43.344Z,99.99
2022-09-12T04:53:43.342Z,99.99
2022-09-12T04:54:43.329Z,99.99
2022-09-12T04:55:43.304Z,99.99
2022-09-12T04:56:43.346Z,99.99
2022-09-12T04:57:43.281Z,99.99
2022-09-12T04:58:43.366Z,99.99
2022-09-12T04:59:43.323Z,99.99
2022-09-12T05:00:43.246Z,99.99
2022-09-12T05:01:43.232Z,99.99
2022-09-12T05:02:43.229Z,99.99
2022-09-12T05:03:43.213Z,99.99
2022-09-12T05:04:43.206Z,99.99
2022-09-12T05:06:32.094Z,99.99
2022-09-12T05:07:33.572Z,99.99
2022-09-12T05:08:33.016Z,99.99
2022-09-12T05:09:33.004Z,99.99
2022-09-12T05:10:33.010Z,99.99
2022-09-12T05:12:02.080Z,99.99
2022-09-12T05:12:33.002Z,99.99
2022-09-12T05:13:32.962Z,99.99
2022-09-12T05:14:32.973Z,99.99
2022-09-12T05:15:32.941Z,99.99
2022-09-12T05:16:32.981Z,99.99
2022-09-12T05:17:32.913Z,99.99
2022-09-12T05:18:32.900Z,99.99
2022-09-12T05:19:32.924Z,99.99
2022-09-12T05:20:32.891Z,99.99
2022-09-12T05:21:32.874Z,99.99
2022-09-12T05:22:32.884Z,99.99
2022-09-12T05:23:32.853Z,99.99
2022-09-12T05:24:32.841Z,99.99
2022-09-12T05:25:32.832Z,99.99
2022-09-12T05:26:32.848Z,99.99
2022-09-12T05:27:32.813Z,99.99
2022-09-12T05:28:32.811Z,99.99
2022-09-12T05:29:32.791Z,99.99
2022-09-12T05:30:33.250Z,99.99
2022-09-12T05:31:33.006Z,99.99
2022-09-12T05:32:32.765Z,99.99
2022-09-12T05:33:32.736Z,99.99
2022-09-12T05:34:32.759Z,99.99
2022-09-12T05:35:32.736Z,99.99
2022-09-12T05:36:32.741Z,99.99
2022-09-12T05:37:32.714Z,99.99
2022-09-12T05:38:32.686Z,99.99
2022-09-12T05:39:32.664Z,99.99
2022-09-12T05:40:32.669Z,99.99
2022-09-12T05:41:32.658Z,99.99
2022-09-12T05:42:32.653Z,99.99
2022-09-12T05:43:32.631Z,99.99
2022-09-12T05:44:32.613Z,99.99
2022-09-12T05:45:32.636Z,99.99
2022-09-12T05:46:32.594Z,99.99
2022-09-12T05:47:32.590Z,99.99
2022-09-12T05:48:32.583Z,99.99
2022-09-12T05:49:32.574Z,99.99
2022-09-12T05:50:32.569Z,99.99
2022-09-12T05:51:32.531Z,99.99
2022-09-12T05:52:32.531Z,99.99
2022-09-12T05:53:32.519Z,99.97
2022-09-12T05:54:32.563Z,99.87
2022-09-12T05:55:32.490Z,99.66
2022-09-12T05:56:32.480Z,99.46
2022-09-12T05:57:32.491Z,99.05
2022-09-12T05:58:32.480Z,98.95
2022-09-12T05:59:32.464Z,98.75
2022-09-12T06:00:33.675Z,98.60
2022-09-12T06:01:32.470Z,98.60
2022-09-12T06:02:32.456Z,98.50
2022-09-12T06:03:32.402Z,98.39
2022-09-12T06:04:32.424Z,98.19
2022-09-12T06:05:32.410Z,98.09
2022-09-12T06:06:32.428Z,97.94
2022-09-12T06:07:32.418Z,97.74
2022-09-12T06:08:32.390Z,97.64
2022-09-12T06:09:33.017Z,97.53
2022-09-12T06:10:32.334Z,97.33
2022-09-12T06:11:32.323Z,97.23
2022-09-12T06:12:32.299Z,96.88
2022-09-12T06:13:32.319Z,96.58
2022-09-12T06:14:32.290Z,96.68
2022-09-12T06:15:32.290Z,96.68
2022-09-12T06:16:32.293Z,96.58
2022-09-12T06:17:32.262Z,96.47
2022-09-12T06:18:32.265Z,96.27
2022-09-12T06:19:32.245Z,96.17
2022-09-12T06:20:32.225Z,95.82
2022-09-12T06:21:32.221Z,95.72
2022-09-12T06:22:32.546Z,95.62
2022-09-12T06:23:32.189Z,95.62
2022-09-12T06:24:32.197Z,95.51
2022-09-12T06:25:32.190Z,95.31
2022-09-12T06:26:32.143Z,95.41
2022-09-12T06:27:32.152Z,94.86
2022-09-12T06:28:32.142Z,95.06
2022-09-12T06:29:32.130Z,95.17
2022-09-12T06:30:32.163Z,94.96
2022-09-12T06:31:32.132Z,95.06
2022-09-12T06:32:32.092Z,94.86
2022-09-12T06:33:32.068Z,94.76
2022-09-12T06:34:32.068Z,94.86
2022-09-12T06:35:32.086Z,94.76
2022-09-12T06:36:32.056Z,94.71
2022-09-12T06:37:32.037Z,94.82
2022-09-12T06:38:32.069Z,94.92
2022-09-12T06:39:32.011Z,94.92
2022-09-12T06:40:31.992Z,94.71
2022-09-12T06:41:32.021Z,94.71
2022-09-12T06:42:33.174Z,94.41
2022-09-12T06:43:32.406Z,94.31
2022-09-12T06:44:31.959Z,94.26
2022-09-12T06:45:31.989Z,94.06
2022-09-12T06:46:31.927Z,93.86
2022-09-12T06:47:31.952Z,93.86
2022-09-12T06:48:31.913Z,93.76
2022-09-12T06:49:31.895Z,93.65
2022-09-12T06:50:31.895Z,93.96
2022-09-12T06:51:31.897Z,93.81
2022-09-12T06:52:32.543Z,93.81
2022-09-12T06:53:31.853Z,93.30
2022-09-12T06:54:31.856Z,93.21
2022-09-12T06:55:31.854Z,93.10
2022-09-12T06:56:31.855Z,92.65
2022-09-12T06:57:31.822Z,92.86
2022-09-12T06:58:31.807Z,92.45
2022-09-12T06:59:32.544Z,92.05
2022-09-12T07:00:31.791Z,91.85
2022-09-12T07:01:31.853Z,92.14
2022-09-12T07:02:31.830Z,92.35
2022-09-12T07:03:31.873Z,91.80
2022-09-12T07:04:31.744Z,91.60
2022-09-12T07:05:31.737Z,91.80
2022-09-12T07:06:31.763Z,91.90
2022-09-12T07:07:31.726Z,91.80
2022-09-12T07:08:31.699Z,91.35
2022-09-12T07:09:31.769Z,91.05
2022-09-12T07:10:31.662Z,91.15
2022-09-12T07:11:31.689Z,91.00
2022-09-12T07:12:31.631Z,90.30
2022-09-12T07:13:31.643Z,90.09
2022-09-12T07:14:31.679Z,89.79
2022-09-12T07:15:31.603Z,89.85
2022-09-12T07:16:31.635Z,89.04
2022-09-12T07:17:31.583Z,89.85
2022-09-12T07:18:31.599Z,89.00
2022-09-12T07:19:31.597Z,88.19
2022-09-12T07:20:31.568Z,88.79
2022-09-12T07:21:31.548Z,88.49
2022-09-12T07:22:31.540Z,87.88
2022-09-12T07:23:31.541Z,87.88
2022-09-12T07:24:31.530Z,87.95
2022-09-12T07:25:31.495Z,88.15
2022-09-12T07:26:31.476Z,88.25
2022-09-12T07:27:31.692Z,88.35
2022-09-12T07:28:31.458Z,87.84
2022-09-12T07:29:38.527Z,88.15
2022-09-12T07:30:31.461Z,88.35
2022-09-12T07:31:32.462Z,88.41
2022-09-12T07:32:31.431Z,87.19
2022-09-12T07:33:31.838Z,87.81
2022-09-12T07:34:32.055Z,87.81
2022-09-12T07:35:31.435Z,88.26
2022-09-12T07:36:31.458Z,87.86
2022-09-12T07:37:31.362Z,87.36
2022-09-12T07:38:31.360Z,87.56
2022-09-12T07:39:31.372Z,86.65
2022-09-12T07:40:31.395Z,86.75
2022-09-12T07:41:31.307Z,86.95
2022-09-12T07:42:31.299Z,86.04
2022-09-12T07:43:31.302Z,86.21
2022-09-12T07:44:31.298Z,87.12
2022-09-12T07:45:31.300Z,86.51
2022-09-12T07:46:31.266Z,86.61
2022-09-12T07:47:31.268Z,87.32
2022-09-12T07:48:31.231Z,87.32
2022-09-12T07:49:31.248Z,87.01
2022-09-12T07:50:31.236Z,86.41
2022-09-12T07:51:31.306Z,87.12
2022-09-12T07:52:31.252Z,86.00
2022-09-12T07:53:31.225Z,85.86
2022-09-12T07:54:32.165Z,86.16
2022-09-12T07:55:31.166Z,86.36
2022-09-12T07:56:34.614Z,85.76
2022-09-12T07:57:31.165Z,85.82
2022-09-12T07:58:32.061Z,85.72
2022-09-12T07:59:51.456Z,86.22
2022-09-12T08:00:31.148Z,85.98
2022-09-12T08:01:31.159Z,84.88
2022-09-12T08:02:31.165Z,84.77
2022-09-12T08:03:31.077Z,86.04
2022-09-12T08:04:31.128Z,83.93
2022-09-12T08:05:31.094Z,84.43
2022-09-12T08:06:31.041Z,84.80
2022-09-12T08:07:31.935Z,85.00
2022-09-12T08:08:31.985Z,85.30
2022-09-12T08:09:31.773Z,84.65
2022-09-12T08:10:31.006Z,83.34
2022-09-12T08:11:31.150Z,83.65
2022-09-12T08:12:31.005Z,83.95
2022-09-12T08:13:31.016Z,82.70
2022-09-12T08:14:30.942Z,81.39
2022-09-12T08:15:31.002Z,82.70
2022-09-12T08:16:30.938Z,81.99
2022-09-12T08:17:30.940Z,83.67
2022-09-12T08:18:30.897Z,82.76
2022-09-12T08:19:30.948Z,81.12
2022-09-12T08:20:30.891Z,80.51
2022-09-12T08:21:30.907Z,78.90
2022-09-12T08:22:30.871Z,79.71
2022-09-12T08:23:30.871Z,78.90
2022-09-12T08:24:30.837Z,79.06
2022-09-12T08:25:30.835Z,78.46
2022-09-12T08:26:31.573Z,78.73
2022-09-12T08:27:30.834Z,78.39
2022-09-12T08:28:30.805Z,76.98
2022-09-12T08:29:30.862Z,76.34
2022-09-12T08:30:30.806Z,75.74
2022-09-12T08:31:31.564Z,75.41
2022-09-12T08:32:30.765Z,74.90
2022-09-12T08:33:30.762Z,74.67
2022-09-12T08:34:30.739Z,73.86
2022-09-12T08:35:30.758Z,73.63
2022-09-12T08:36:32.258Z,73.13
2022-09-12T08:37:30.698Z,73.03
2022-09-12T08:38:30.723Z,72.80
2022-09-12T08:39:30.698Z,72.36
2022-09-12T08:40:30.678Z,71.53
2022-09-12T08:41:30.935Z,70.09
2022-09-12T08:42:30.712Z,69.23
2022-09-12T08:43:30.868Z,67.49
2022-09-12T08:44:31.802Z,67.36
2022-09-12T08:45:30.830Z,66.73
2022-09-12T08:46:30.620Z,65.61
2022-09-12T08:47:31.632Z,65.11
2022-09-12T08:48:30.824Z,64.54
2022-09-12T08:49:31.092Z,64.84
2022-09-12T08:50:30.573Z,64.28
2022-09-12T08:51:30.575Z,64.90
2022-09-12T08:52:30.609Z,65.11
2022-09-12T08:53:30.537Z,65.20
2022-09-12T08:54:31.332Z,64.54
2022-09-12T08:55:30.508Z,64.01
2022-09-12T08:56:31.788Z,63.42
2022-09-12T08:57:30.623Z,63.42
2022-09-12T08:58:30.498Z,63.29
2022-09-12T08:59:30.474Z,62.37
2022-09-12T09:00:30.471Z,61.64
2022-09-12T09:01:30.509Z,60.52
2022-09-12T09:02:30.489Z,60.31
2022-09-12T09:03:30.427Z,60.58
2022-09-12T09:04:30.451Z,60.16
2022-09-12T09:05:30.389Z,59.17
2022-09-12T09:06:30.410Z,59.36
2022-09-12T09:07:30.368Z,59.27
2022-09-12T09:08:30.346Z,58.87
2022-09-12T09:09:33.289Z,59.30
2022-09-12T09:10:30.328Z,59.36
2022-09-12T09:11:30.339Z,58.64
2022-09-12T09:12:36.897Z,57.82
2022-09-12T09:13:30.301Z,56.77
2022-09-12T09:14:30.307Z,56.42
2022-09-12T09:15:30.326Z,54.27
2022-09-12T09:16:30.291Z,52.73
2022-09-12T09:17:30.284Z,51.50
2022-09-12T09:18:33.731Z,51.30
2022-09-12T09:19:31.130Z,50.78
2022-09-12T09:20:30.235Z,50.78
2022-09-12T09:21:30.267Z,50.68
2022-09-12T09:22:30.247Z,50.88
2022-09-12T09:23:30.205Z,50.24
2022-09-12T09:24:30.406Z,50.14
2022-09-12T09:25:30.185Z,49.48
2022-09-12T09:26:30.184Z,50.07
2022-09-12T09:27:40.549Z,50.07
2022-09-12T09:28:30.244Z,49.67
2022-09-12T09:29:30.134Z,49.43
2022-09-12T09:30:30.135Z,49.30
2022-09-12T09:31:30.185Z,47.63
2022-09-12T09:32:30.088Z,47.63
2022-09-12T09:33:30.113Z,46.90
2022-09-12T09:34:30.129Z,46.28
2022-09-12T09:35:34.329Z,45.77
2022-09-12T09:36:30.646Z,45.45
2022-09-12T09:37:30.076Z,44.43
2022-09-12T09:38:30.043Z,44.27
2022-09-12T09:39:30.053Z,44.16
2022-09-12T09:40:30.051Z,44.55
2022-09-12T09:41:30.048Z,45.06
2022-09-12T09:42:30.025Z,45.16
2022-09-12T09:43:30.073Z,45.36
2022-09-12T09:44:29.975Z,45.16
2022-09-12T09:45:29.969Z,44.55
2022-09-12T09:46:30.699Z,43.94
2022-09-12T09:47:31.661Z,43.72
2022-09-12T09:48:30.655Z,43.60
2022-09-12T09:49:29.948Z,43.02
2022-09-12T09:50:29.914Z,42.29
2022-09-12T09:51:29.895Z,41.17
2022-09-12T09:52:29.872Z,40.37
2022-09-12T09:53:29.884Z,39.86
2022-09-12T09:54:29.855Z,40.47
2022-09-12T09:55:29.871Z,40.97
2022-09-12T09:56:29.841Z,39.98
2022-09-12T09:57:30.657Z,39.57
2022-09-12T09:58:30.164Z,39.88
2022-09-12T09:59:29.834Z,39.55
2022-09-12T10:00:29.813Z,38.77
2022-09-12T10:01:30.078Z,38.75
2022-09-12T10:02:29.822Z,38.73
2022-09-12T10:03:29.759Z,37.91
2022-09-12T10:04:29.801Z,37.60
2022-09-12T10:05:29.751Z,36.82
2022-09-12T10:06:29.737Z,36.82
2022-09-12T10:07:29.720Z,36.68
2022-09-12T10:08:30.670Z,37.29
2022-09-12T10:09:29.708Z,36.82
2022-09-12T10:10:30.651Z,36.99
2022-09-12T10:11:29.695Z,36.68
2022-09-12T10:12:35.780Z,36.90
2022-09-12T10:13:31.393Z,36.51
2022-09-12T10:14:29.647Z,36.51
2022-09-12T10:15:29.873Z,36.52
2022-09-12T10:16:30.698Z,36.75
2022-09-12T10:17:34.251Z,37.18
2022-09-12T10:18:29.826Z,38.37
2022-09-12T10:19:29.594Z,38.06
2022-09-12T10:20:29.592Z,36.75
2022-09-12T10:21:29.657Z,36.55
2022-09-12T10:22:29.590Z,36.55
2022-09-12T10:23:29.569Z,36.65
2022-09-12T10:24:29.989Z,38.20
2022-09-12T10:25:30.173Z,38.67
2022-09-12T10:26:29.531Z,38.18
2022-09-12T10:27:29.554Z,37.77
2022-09-12T10:28:29.517Z,37.45
2022-09-12T10:29:29.509Z,37.45
2022-09-12T10:30:29.570Z,37.04
2022-09-12T10:31:29.478Z,36.44
2022-09-12T10:32:30.985Z,36.02
2022-09-12T10:33:29.494Z,35.64
2022-09-12T10:34:29.459Z,36.43
2022-09-12T10:35:29.437Z,36.11
2022-09-12T10:36:29.452Z,35.71
2022-09-12T10:37:29.471Z,34.91
2022-09-12T10:38:29.427Z,35.43
2022-09-12T10:39:29.406Z,36.54
2022-09-12T10:40:29.387Z,36.82
2022-09-12T10:41:29.423Z,36.21
2022-09-12T10:42:29.382Z,35.90
2022-09-12T10:43:29.367Z,35.71
2022-09-12T10:44:29.400Z,35.90
2022-09-12T10:45:29.337Z,35.92
2022-09-12T10:46:29.442Z,36.11
2022-09-12T10:47:29.332Z,36.11
2022-09-12T10:48:29.314Z,35.51
2022-09-12T10:49:29.298Z,35.61
2022-09-12T10:50:29.327Z,35.90
2022-09-12T10:51:29.310Z,35.61
2022-09-12T10:52:29.283Z,35.71
2022-09-12T10:53:34.160Z,35.28
2022-09-12T10:54:29.253Z,35.20
2022-09-12T10:55:29.261Z,34.88
2022-09-12T10:56:29.253Z,33.88
2022-09-12T10:57:29.234Z,33.07
2022-09-12T10:58:29.210Z,32.75
2022-09-12T10:59:29.201Z,32.57
2022-09-12T11:00:29.404Z,32.57
2022-09-12T11:01:29.280Z,33.18
2022-09-12T11:02:30.259Z,32.79
2022-09-12T11:03:29.175Z,32.89
2022-09-12T11:04:31.897Z,32.60
2022-09-12T11:05:29.164Z,33.01
2022-09-12T11:06:29.154Z,33.62
2022-09-12T11:07:29.676Z,33.15
2022-09-12T11:08:29.124Z,33.48
2022-09-12T11:09:29.122Z,33.26
2022-09-12T11:10:34.307Z,32.75
2022-09-12T11:11:29.106Z,32.55
2022-09-12T11:12:29.088Z,32.96
2022-09-12T11:13:29.091Z,32.45
2022-09-12T11:14:29.097Z,32.53
2022-09-12T11:15:29.099Z,32.31
2022-09-12T11:16:29.061Z,32.60
2022-09-12T11:17:29.055Z,32.02
2022-09-12T11:18:29.024Z,33.14
2022-09-12T11:19:29.013Z,33.31
2022-09-12T11:20:29.012Z,32.62
2022-09-12T11:21:29.029Z,32.81
2022-09-12T11:22:31.899Z,33.41
2022-09-12T11:23:28.975Z,32.71
2022-09-12T11:24:29.014Z,32.79
2022-09-12T11:25:28.974Z,32.00
2022-09-12T11:26:28.979Z,31.30
2022-09-12T11:27:28.959Z,31.10
2022-09-12T11:28:28.963Z,30.62
2022-09-12T11:29:28.920Z,30.21
2022-09-12T11:30:28.988Z,30.00
2022-09-12T11:31:28.912Z,30.09
2022-09-12T11:32:29.104Z,29.79
2022-09-12T11:33:28.897Z,29.60
2022-09-12T11:34:28.884Z,30.19
2022-09-12T11:35:28.888Z,29.68
2022-09-12T11:36:28.861Z,28.89
2022-09-12T11:37:28.854Z,28.77
2022-09-12T11:38:28.865Z,28.68
2022-09-12T11:39:28.853Z,29.11
2022-09-12T11:40:28.933Z,29.61
2022-09-12T11:41:28.827Z,29.82
2022-09-12T11:42:35.348Z,30.33
2022-09-12T11:43:28.830Z,30.01
2022-09-12T11:44:28.826Z,30.00
2022-09-12T11:45:28.773Z,29.00
2022-09-12T11:46:28.863Z,28.30
2022-09-12T11:47:28.774Z,28.59
2022-09-12T11:48:28.780Z,28.29
2022-09-12T11:49:29.727Z,28.28
2022-09-12T11:50:28.738Z,28.12
2022-09-12T11:51:28.729Z,28.53
2022-09-12T11:52:28.741Z,28.53
2022-09-12T11:53:28.919Z,28.81
2022-09-12T11:54:28.733Z,28.80
2022-09-12T11:55:28.729Z,28.29
2022-09-12T11:56:28.684Z,29.16
2022-09-12T11:57:28.673Z,28.49
2022-09-12T11:58:28.670Z,27.81
2022-09-12T11:59:28.669Z,27.98
2022-09-12T12:00:28.871Z,27.70
2022-09-12T12:01:28.667Z,27.57
2022-09-12T12:02:28.723Z,27.26
2022-09-12T12:03:28.670Z,27.08
2022-09-12T12:04:28.644Z,27.47
2022-09-12T12:05:28.595Z,28.25
2022-09-12T12:06:28.619Z,27.98
2022-09-12T12:07:28.590Z,28.50
2022-09-12T12:08:28.582Z,29.32
2022-09-12T12:09:28.576Z,29.22
2022-09-12T12:10:28.557Z,28.41
2022-09-12T12:11:28.556Z,28.18
2022-09-12T12:12:28.552Z,28.07
2022-09-12T12:13:28.530Z,27.39
2022-09-12T12:14:28.535Z,27.17
2022-09-12T12:15:28.547Z,27.36
2022-09-12T12:16:28.501Z,27.47
2022-09-12T12:17:28.600Z,27.86
2022-09-12T12:18:28.486Z,27.45
2022-09-12T12:19:28.554Z,27.44
2022-09-12T12:20:28.536Z,26.87
2022-09-12T12:21:28.736Z,26.97
2022-09-12T12:22:28.474Z,26.76
2022-09-12T12:23:28.453Z,27.58
2022-09-12T12:24:28.466Z,28.41
2022-09-12T12:25:30.027Z,28.90
2022-09-12T12:26:28.436Z,28.59
2022-09-12T12:27:28.437Z,28.18
2022-09-12T12:28:28.704Z,27.58
2022-09-12T12:29:28.409Z,27.68
2022-09-12T12:30:28.408Z,26.70
2022-09-12T12:31:28.502Z,27.36
2022-09-12T12:32:28.380Z,26.48
2022-09-12T12:33:28.378Z,27.35
2022-09-12T12:34:28.405Z,26.67
2022-09-12T12:35:28.382Z,26.29
2022-09-12T12:36:28.368Z,26.51
2022-09-12T12:37:28.332Z,26.50
2022-09-12T12:38:28.340Z,26.62
2022-09-12T12:39:28.355Z,27.03
2022-09-12T12:40:28.307Z,27.14
2022-09-12T12:41:28.323Z,26.93
2022-09-12T12:42:28.285Z,26.43
2022-09-12T12:43:28.286Z,26.62
2022-09-12T12:44:28.292Z,25.72
2022-09-12T12:45:28.263Z,25.42
2022-09-12T12:46:28.355Z,25.32
2022-09-12T12:47:28.247Z,25.79
2022-09-12T12:48:28.305Z,25.49
2022-09-12T12:49:28.241Z,25.46
2022-09-12T12:50:28.223Z,24.77
2022-09-12T12:51:28.223Z,24.58
2022-09-12T12:52:28.717Z,25.50
2022-09-12T12:53:28.238Z,25.40
2022-09-12T12:54:28.190Z,25.60
2022-09-12T12:55:28.185Z,25.89
2022-09-12T12:56:28.226Z,25.92
2022-09-12T12:57:28.240Z,25.61
2022-09-12T12:58:28.147Z,25.51
2022-09-12T12:59:28.156Z,24.82
2022-09-12T13:00:28.169Z,25.21
2022-09-12T13:01:28.148Z,25.32
2022-09-12T13:02:28.194Z,25.51
2022-09-12T13:03:28.100Z,25.62
2022-09-12T13:04:28.140Z,25.71
2022-09-12T13:05:28.103Z,25.12
2022-09-12T13:06:28.092Z,25.10
2022-09-12T13:07:28.086Z,25.60
2022-09-12T13:08:28.081Z,25.60
2022-09-12T13:09:28.158Z,25.72
2022-09-12T13:10:28.722Z,25.71
2022-09-12T13:11:28.052Z,24.91
2022-09-12T13:12:28.058Z,25.82
2022-09-12T13:13:28.055Z,25.71
2022-09-12T13:14:28.075Z,25.61
2022-09-12T13:15:28.079Z,26.40
2022-09-12T13:16:28.007Z,25.92
2022-09-12T13:17:27.993Z,26.21
2022-09-12T13:18:27.993Z,26.41
2022-09-12T13:19:28.043Z,26.20
2022-09-12T13:20:29.230Z,26.37
2022-09-12T13:21:27.971Z,25.68
2022-09-12T13:22:27.960Z,25.62
2022-09-12T13:23:27.977Z,26.53
2022-09-12T13:24:27.959Z,25.49
2022-09-12T13:25:27.938Z,24.80
2022-09-12T13:26:27.916Z,24.49
2022-09-12T13:27:27.895Z,24.08
2022-09-12T13:28:27.917Z,23.49
2022-09-12T13:29:27.891Z,23.60
2022-09-12T13:30:27.923Z,24.19
2022-09-12T13:31:27.904Z,24.49
2022-09-12T13:32:27.927Z,23.59
2022-09-12T13:33:27.855Z,23.57
2022-09-12T13:34:27.861Z,22.86
2022-09-12T13:35:27.859Z,22.58
2022-09-12T13:36:27.835Z,22.80
2022-09-12T13:37:27.854Z,23.32
2022-09-12T13:38:27.855Z,23.50
2022-09-12T13:39:27.840Z,23.29
2022-09-12T13:40:27.892Z,23.24
2022-09-12T13:41:27.785Z,24.40
2022-09-12T13:42:27.818Z,24.29
2022-09-12T13:43:27.820Z,24.46
2022-09-12T13:44:27.905Z,24.07
2022-09-12T13:45:27.776Z,23.93
2022-09-12T13:46:27.801Z,23.52
2022-09-12T13:47:27.743Z,23.72
2022-09-12T13:48:27.791Z,23.54
2022-09-12T13:49:27.804Z,23.83
2022-09-12T13:50:27.790Z,23.85
2022-09-12T13:51:27.696Z,24.65
2022-09-12T13:52:34.266Z,25.55
2022-09-12T13:53:27.707Z,25.96
2022-09-12T13:54:27.679Z,25.55
2022-09-12T13:55:27.746Z,25.44
2022-09-12T13:56:27.662Z,25.66
2022-09-12T13:57:27.667Z,26.06
2022-09-12T13:58:27.677Z,26.16
2022-09-12T13:59:27.646Z,26.04
2022-09-12T14:00:27.627Z,25.34
2022-09-12T14:01:27.706Z,26.01
2022-09-12T14:02:27.739Z,25.21
2022-09-12T14:03:27.641Z,25.50
2022-09-12T14:04:27.594Z,25.50
2022-09-12T14:05:27.594Z,25.63
2022-09-12T14:06:27.691Z,25.52
2022-09-12T14:07:27.589Z,25.20
2022-09-12T14:08:27.555Z,24.51
2022-09-12T14:09:27.670Z,24.40
2022-09-12T14:10:27.539Z,23.99
2022-09-12T14:11:27.535Z,24.48
2022-09-12T14:12:27.560Z,24.77
2022-09-12T14:13:27.516Z,24.77
2022-09-12T14:14:27.546Z,25.18
2022-09-12T14:15:27.706Z,25.07
2022-09-12T14:16:27.522Z,25.08
2022-09-12T14:17:27.501Z,24.57
2022-09-12T14:18:27.523Z,24.98
2022-09-12T14:19:27.486Z,25.98
2022-09-12T14:20:27.459Z,25.71
2022-09-12T14:21:27.714Z,25.68
2022-09-12T14:22:27.441Z,25.57
2022-09-12T14:23:27.469Z,25.39
2022-09-12T14:24:27.554Z,25.60
2022-09-12T14:25:27.467Z,25.40
2022-09-12T14:26:27.432Z,25.20
2022-09-12T14:27:27.391Z,24.88
2022-09-12T14:28:27.413Z,24.87
2022-09-12T14:29:27.397Z,25.60
2022-09-12T14:30:27.375Z,26.09
2022-09-12T14:31:27.415Z,25.78
2022-09-12T14:32:27.361Z,25.59
2022-09-12T14:33:27.359Z,25.79
2022-09-12T14:34:27.438Z,26.50
2022-09-12T14:35:27.368Z,26.48
2022-09-12T14:36:27.349Z,26.50
2022-09-12T14:37:27.333Z,26.48
2022-09-12T14:38:27.318Z,26.19
2022-09-12T14:39:27.287Z,25.90
2022-09-12T14:40:27.369Z,25.98
2022-09-12T14:41:27.290Z,25.57
2022-09-12T14:42:33.782Z,25.26
2022-09-12T14:43:27.334Z,25.67
2022-09-12T14:44:27.254Z,25.76
2022-09-12T14:45:27.240Z,25.87
2022-09-12T14:46:27.277Z,25.48
2022-09-12T14:47:27.264Z,25.67
2022-09-12T14:48:27.219Z,25.99
2022-09-12T14:49:27.222Z,26.79
2022-09-12T14:50:27.197Z,27.31
2022-09-12T14:51:27.213Z,28.41
2022-09-12T14:52:27.237Z,28.32
2022-09-12T14:53:27.187Z,28.83
2022-09-12T14:54:27.159Z,29.01
2022-09-12T14:55:27.164Z,28.04
2022-09-12T14:56:27.179Z,27.94
2022-09-12T14:57:27.804Z,28.03
2022-09-12T14:58:27.134Z,28.25
2022-09-12T14:59:27.128Z,28.55
2022-09-12T15:00:27.174Z,28.86
2022-09-12T15:01:27.164Z,28.45
2022-09-12T15:02:27.108Z,28.23
2022-09-12T15:03:27.081Z,28.22
2022-09-12T15:04:27.147Z,27.72
2022-09-12T15:05:27.073Z,27.93
2022-09-12T15:06:27.099Z,28.63
2022-09-12T15:07:27.059Z,28.74
2022-09-12T15:08:27.049Z,28.74
2022-09-12T15:09:27.058Z,28.64
2022-09-12T15:10:27.022Z,28.64
2022-09-12T15:11:27.020Z,28.44
2022-09-12T15:12:27.004Z,28.12
2022-09-12T15:13:26.995Z,27.43
2022-09-12T15:14:27.000Z,27.72
2022-09-12T15:15:26.977Z,27.43
2022-09-12T15:16:26.973Z,27.45
2022-09-12T15:17:26.954Z,27.86
2022-09-12T15:18:26.971Z,28.15
2022-09-12T15:19:26.942Z,28.85
2022-09-12T15:20:26.937Z,29.65
2022-09-12T15:21:26.920Z,30.44
2022-09-12T15:22:26.909Z,30.15
2022-09-12T15:23:26.944Z,30.57
2022-09-12T15:24:26.891Z,30.70
2022-09-12T15:25:26.888Z,31.31
2022-09-12T15:26:26.872Z,31.51
2022-09-12T15:27:26.878Z,31.30
2022-09-12T15:28:27.121Z,31.19
2022-09-12T15:29:26.862Z,30.68
2022-09-12T15:30:26.835Z,30.28
2022-09-12T15:31:26.939Z,30.47
2022-09-12T15:32:26.819Z,30.57
2022-09-12T15:33:26.819Z,30.57
2022-09-12T15:34:26.794Z,30.55
2022-09-12T15:35:26.815Z,30.36
2022-09-12T15:36:26.800Z,30.15
2022-09-12T15:37:26.757Z,30.04
2022-09-12T15:38:26.968Z,29.64
2022-09-12T15:39:26.770Z,29.54
2022-09-12T15:40:26.806Z,29.35
2022-09-12T15:41:26.754Z,29.15
2022-09-12T15:42:33.280Z,29.46
2022-09-12T15:43:26.703Z,29.05
2022-09-12T15:44:26.728Z,28.96
2022-09-12T15:45:26.697Z,29.65
2022-09-12T15:46:26.721Z,29.86
2022-09-12T15:47:26.664Z,30.15
2022-09-12T15:48:26.653Z,30.36
2022-09-12T15:49:26.658Z,31.57
2022-09-12T15:50:26.647Z,31.48
2022-09-12T15:51:26.651Z,31.67
2022-09-12T15:52:26.616Z,31.57
2022-09-12T15:53:26.622Z,31.37
2022-09-12T15:54:26.661Z,31.46
2022-09-12T15:55:26.584Z,30.88
2022-09-12T15:56:26.593Z,30.88
2022-09-12T15:57:26.577Z,31.38
2022-09-12T15:58:26.558Z,31.40
2022-09-12T15:59:26.564Z,31.90
2022-09-12T16:00:26.536Z,32.01
2022-09-12T16:01:26.597Z,32.09
2022-09-12T16:02:26.547Z,32.09
2022-09-12T16:03:26.521Z,32.31
2022-09-12T16:04:26.497Z,32.60
2022-09-12T16:05:26.488Z,33.11
2022-09-12T16:06:26.523Z,33.04
2022-09-12T16:07:26.481Z,33.84
2022-09-12T16:08:26.473Z,34.36
2022-09-12T16:09:26.448Z,34.94
2022-09-12T16:10:26.447Z,35.04
2022-09-12T16:11:26.440Z,35.04
2022-09-12T16:12:26.421Z,35.03
2022-09-12T16:13:26.415Z,34.33
2022-09-12T16:14:26.408Z,34.03
2022-09-12T16:15:26.426Z,34.03
2022-09-12T16:16:26.556Z,34.24
2022-09-12T16:17:26.454Z,34.75
2022-09-12T16:18:26.376Z,35.04
2022-09-12T16:19:26.363Z,35.35
2022-09-12T16:20:26.356Z,35.25
2022-09-12T16:21:26.339Z,34.86
2022-09-12T16:22:26.335Z,35.06
2022-09-12T16:23:26.309Z,35.25
2022-09-12T16:24:26.334Z,35.37
2022-09-12T16:25:26.346Z,35.37
2022-09-12T16:26:26.307Z,35.27